createdAt,value
2022-08-24T00:02:26.941Z,8.63
2022-08-24T00:04:54.354Z,5.43
2022-08-24T00:07:27.449Z,5.72
2022-08-24T00:09:54.807Z,7.93
2022-08-24T00:12:21.683Z,9.82
2022-08-24T00:14:49.394Z,9.10
2022-08-24T00:17:17.404Z,8.30
2022-08-24T00:19:44.337Z,12.13
2022-08-24T00:22:10.969Z,11.95
2022-08-24T00:24:37.985Z,12.10
2022-08-24T00:27:06.691Z,6.32
2022-08-24T00:29:34.051Z,9.50
2022-08-24T00:32:01.129Z,14.45
2022-08-24T00:34:27.936Z,5.75
2022-08-24T00:36:55.009Z,9.63
2022-08-24T00:39:21.787Z,16.73
2022-08-24T00:41:50.440Z,11.23
2022-08-24T00:44:18.458Z,7.85
2022-08-24T00:47:12.538Z,8.43
2022-08-24T00:50:08.655Z,10.52
2022-08-24T00:52:56.771Z,14.93
2022-08-24T00:55:52.101Z,13.15
2022-08-24T00:58:23.822Z,9.98
2022-08-24T01:00:56.983Z,7.25
2022-08-24T01:03:28.024Z,12.13
2022-08-24T01:05:56.276Z,7.15
2022-08-24T01:08:23.976Z,12.32
2022-08-24T01:10:54.771Z,11.00
2022-08-24T01:13:23.166Z,8.75
2022-08-24T01:15:52.678Z,12.98
2022-08-24T01:18:40.667Z,6.47
2022-08-24T01:21:31.666Z,6.80
2022-08-24T01:24:05.937Z,10.75
2022-08-24T01:26:40.292Z,6.93
2022-08-24T01:29:11.723Z,9.10
2022-08-24T01:31:38.741Z,10.07
2022-08-24T01:34:06.197Z,10.43
2022-08-24T01:36:41.810Z,12.80
2022-08-24T01:39:19.144Z,7.32
2022-08-24T01:41:45.756Z,8.05
2022-08-24T01:44:12.405Z,7.55
2022-08-24T01:46:39.051Z,9.07
2022-08-24T01:49:05.792Z,7.63
2022-08-24T01:51:34.232Z,7.45
2022-08-24T01:54:05.794Z,5.97
2022-08-24T01:56:33.191Z,9.88
2022-08-24T01:59:00.863Z,7.00
2022-08-24T02:01:30.582Z,7.82
2022-08-24T02:04:00.743Z,9.55
2022-08-24T02:06:27.354Z,7.38
2022-08-24T02:08:53.982Z,10.70
2022-08-24T02:11:20.569Z,8.73
2022-08-24T02:13:47.686Z,8.90
2022-08-24T02:16:15.107Z,14.48
2022-08-24T02:18:42.311Z,7.53
2022-08-24T02:21:11.131Z,9.88
2022-08-24T02:23:39.047Z,7.85
2022-08-24T02:26:08.179Z,12.73
2022-08-24T02:28:35.769Z,10.50
2022-08-24T02:31:05.922Z,11.70
2022-08-24T02:33:34.939Z,9.23
2022-08-24T02:36:02.751Z,9.50
2022-08-24T02:38:30.702Z,6.75
2022-08-24T02:40:58.039Z,5.43
2022-08-24T02:43:25.108Z,7.03
2022-08-24T02:45:51.802Z,10.23
2022-08-24T02:48:19.351Z,11.23
2022-08-24T02:50:48.790Z,8.40
2022-08-24T02:53:17.519Z,7.82
2022-08-24T02:55:44.661Z,5.95
2022-08-24T02:58:13.061Z,9.48
2022-08-24T03:00:40.927Z,11.13
2022-08-24T03:03:09.094Z,11.02
2022-08-24T03:05:36.280Z,9.65
2022-08-24T03:08:03.781Z,12.77
2022-08-24T03:10:30.882Z,6.30
2022-08-24T03:12:59.252Z,11.20
2022-08-24T03:15:26.133Z,9.75
2022-08-24T03:17:52.715Z,10.07
2022-08-24T03:20:22.448Z,12.57
2022-08-24T03:22:49.176Z,15.43
2022-08-24T03:25:18.233Z,7.75
2022-08-24T03:27:45.325Z,10.13
2022-08-24T03:30:14.936Z,7.80
2022-08-24T03:32:42.466Z,9.60
2022-08-24T03:35:12.183Z,11.35
2022-08-24T03:37:39.896Z,9.20
2022-08-24T03:40:08.417Z,9.27
2022-08-24T03:42:49.730Z,16.73
2022-08-24T03:45:16.427Z,12.50
2022-08-24T03:47:43.446Z,10.68
2022-08-24T03:50:12.121Z,20.30
2022-08-24T03:52:38.875Z,13.80
2022-08-24T03:55:06.966Z,8.93
2022-08-24T03:57:33.630Z,7.20
2022-08-24T04:00:00.363Z,11.93
2022-08-24T04:02:32.359Z,17.60
2022-08-24T04:04:59.569Z,8.57
2022-08-24T04:07:26.186Z,9.52
2022-08-24T04:09:52.867Z,9.88
2022-08-24T04:12:19.555Z,9.15
2022-08-24T04:14:52.597Z,10.98
2022-08-24T04:17:19.186Z,14.38
2022-08-24T04:19:57.978Z,15.05
2022-08-24T04:22:26.635Z,9.40
2022-08-24T04:24:53.658Z,9.95
2022-08-24T04:27:20.611Z,10.80
2022-08-24T04:29:47.820Z,8.15
2022-08-24T04:32:15.678Z,11.20
2022-08-24T04:34:44.148Z,12.60
2022-08-24T04:37:11.835Z,5.60
2022-08-24T04:39:38.952Z,12.88
2022-08-24T04:42:06.623Z,7.60
2022-08-24T04:44:33.307Z,7.13
2022-08-24T04:47:01.337Z,9.65
2022-08-24T04:49:27.915Z,9.70
2022-08-24T04:51:54.587Z,40.45
2022-08-24T04:54:21.130Z,22.83
2022-08-24T04:56:47.704Z,18.25
2022-08-24T04:59:14.379Z,11.32
2022-08-24T05:01:42.260Z,7.40
2022-08-24T05:04:08.911Z,9.85
2022-08-24T05:06:35.518Z,5.25
2022-08-24T05:09:04.638Z,11.95
2022-08-24T05:11:31.779Z,10.07
2022-08-24T05:13:59.669Z,5.38
2022-08-24T05:16:27.449Z,4.97
2022-08-24T05:18:56.535Z,4.40
2022-08-24T05:21:25.140Z,3.00
2022-08-24T05:23:51.870Z,2.80
2022-08-24T05:26:22.388Z,3.70
2022-08-24T05:28:48.946Z,2.50
2022-08-24T05:31:21.911Z,3.33
2022-08-24T05:33:48.932Z,3.10
2022-08-24T05:36:20.022Z,2.47
2022-08-24T05:38:47.961Z,4.30
2022-08-24T05:41:16.029Z,1.42
2022-08-24T05:43:43.354Z,2.08
2022-08-24T05:46:10.483Z,2.00
2022-08-24T05:48:38.260Z,3.70
2022-08-24T05:51:06.756Z,3.17
2022-08-24T05:53:33.615Z,2.25
2022-08-24T05:56:09.087Z,1.88
2022-08-24T05:58:37.559Z,2.88
2022-08-24T06:01:16.838Z,3.22
2022-08-24T06:03:44.403Z,4.75
2022-08-24T06:06:12.040Z,4.40
2022-08-24T06:08:41.955Z,3.60
2022-08-24T06:11:09.807Z,4.35
2022-08-24T06:13:36.552Z,4.68
2022-08-24T06:16:25.115Z,3.72
2022-08-24T06:18:53.660Z,3.05
2022-08-24T06:21:23.565Z,3.65
2022-08-24T06:23:51.384Z,3.15
2022-08-24T06:26:38.159Z,5.30
2022-08-24T06:29:05.818Z,3.42
2022-08-24T06:31:40.043Z,3.38
2022-08-24T06:34:09.610Z,2.22
2022-08-24T06:36:36.567Z,5.43
2022-08-24T06:39:04.270Z,3.70
2022-08-24T06:41:32.680Z,5.38
2022-08-24T06:43:59.260Z,5.85
2022-08-24T06:46:29.484Z,4.60
2022-08-24T06:48:59.132Z,2.95
2022-08-24T06:51:25.783Z,3.20
2022-08-24T06:53:56.177Z,2.15
2022-08-24T06:56:23.098Z,5.15
2022-08-24T06:58:49.812Z,2.22
2022-08-24T07:01:20.178Z,3.15
2022-08-24T07:03:46.885Z,4.07
2022-08-24T07:06:14.430Z,6.15
2022-08-24T07:08:43.011Z,4.03
2022-08-24T07:11:11.063Z,6.60
2022-08-24T07:13:37.710Z,4.95
2022-08-24T07:16:04.920Z,4.60
2022-08-24T07:18:31.656Z,1.55
2022-08-24T07:21:02.354Z,3.58
2022-08-24T07:23:41.153Z,2.55
2022-08-24T07:26:21.087Z,3.83
2022-08-24T07:28:49.108Z,3.90
2022-08-24T07:31:15.797Z,4.18
2022-08-24T07:33:42.473Z,3.60
2022-08-24T07:36:09.132Z,4.35
2022-08-24T07:38:35.930Z,3.42
2022-08-24T07:41:33.266Z,3.28
2022-08-24T07:43:49.630Z,8.20
2022-08-24T07:46:16.304Z,2.35
2022-08-24T07:48:42.930Z,1.17
2022-08-24T07:51:12.487Z,3.85
2022-08-24T07:53:53.062Z,3.30
2022-08-24T07:56:20.710Z,3.15
2022-08-24T07:58:47.532Z,3.35
2022-08-24T08:01:14.269Z,2.58
2022-08-24T08:03:41.715Z,2.75
2022-08-24T08:06:15.924Z,5.07
2022-08-24T08:08:43.586Z,2.58
2022-08-24T08:11:10.892Z,4.10
2022-08-24T08:13:38.212Z,2.95
2022-08-24T08:16:08.427Z,3.17
2022-08-24T08:18:35.962Z,5.50
2022-08-24T08:21:04.972Z,4.57
2022-08-24T08:23:50.431Z,4.28
2022-08-24T08:26:20.547Z,2.75
2022-08-24T08:28:47.841Z,2.17
2022-08-24T08:31:14.573Z,2.88
2022-08-24T08:33:41.890Z,2.83
2022-08-24T08:36:12.619Z,4.10
2022-08-24T08:38:40.136Z,3.72
2022-08-24T08:41:25.963Z,7.45
2022-08-24T08:44:27.775Z,3.63
2022-08-24T08:47:16.824Z,3.10
2022-08-24T08:50:08.299Z,3.63
2022-08-24T08:52:44.003Z,3.03
2022-08-24T08:55:44.413Z,2.33
2022-08-24T08:58:11.456Z,3.33
2022-08-24T09:00:56.000Z,1.95
2022-08-24T09:03:28.263Z,3.23
2022-08-24T09:05:58.957Z,3.05
2022-08-24T09:08:38.877Z,5.10
2022-08-24T09:11:11.202Z,2.95
2022-08-24T09:13:43.096Z,1.40
2022-08-24T09:16:10.777Z,2.45
2022-08-24T09:18:58.664Z,2.00
2022-08-24T09:21:31.083Z,0.95
2022-08-24T09:24:30.026Z,3.35
2022-08-24T09:27:04.834Z,2.22
2022-08-24T09:29:42.842Z,3.92
2022-08-24T09:32:13.021Z,1.90
2022-08-24T09:34:59.895Z,6.40
2022-08-24T09:37:46.899Z,2.65
2022-08-24T09:40:36.586Z,1.98
2022-08-24T09:43:36.782Z,2.50
2022-08-24T09:46:40.506Z,6.30
2022-08-24T09:49:17.519Z,4.82
2022-08-24T09:52:05.664Z,1.75
2022-08-24T09:55:04.863Z,2.17
2022-08-24T09:58:00.663Z,0.93
2022-08-24T10:00:48.834Z,2.20
2022-08-24T10:03:38.666Z,2.55
2022-08-24T10:06:32.279Z,1.77
2022-08-24T10:09:13.756Z,1.05
2022-08-24T10:11:49.815Z,1.92
2022-08-24T10:14:33.977Z,0.90
2022-08-24T10:17:24.317Z,1.20
2022-08-24T10:20:16.547Z,1.42
2022-08-24T10:23:15.139Z,2.58
2022-08-24T10:26:22.905Z,2.55
2022-08-24T10:28:58.238Z,2.08
2022-08-24T10:31:37.027Z,1.20
2022-08-24T10:34:27.747Z,3.72
2022-08-24T10:37:15.336Z,4.43
2022-08-24T10:40:19.474Z,5.65
2022-08-24T10:43:26.323Z,1.35
2022-08-24T10:46:11.826Z,2.20
2022-08-24T10:48:58.324Z,1.45
2022-08-24T10:51:58.823Z,1.45
2022-08-24T10:54:25.618Z,1.30
2022-08-24T10:56:55.079Z,1.90
2022-08-24T11:00:01.251Z,1.65
2022-08-24T11:02:29.913Z,1.00
2022-08-24T11:04:58.992Z,2.40
2022-08-24T11:07:26.250Z,1.33
2022-08-24T11:10:10.023Z,3.60
2022-08-24T11:12:40.426Z,0.45
2022-08-24T11:15:27.937Z,0.75
2022-08-24T11:18:03.382Z,1.42
2022-08-24T11:20:36.612Z,0.73
2022-08-24T11:23:05.385Z,1.40
2022-08-24T11:25:36.179Z,1.55
2022-08-24T11:28:06.786Z,1.40
2022-08-24T11:30:40.171Z,0.32
2022-08-24T11:33:34.039Z,1.02
2022-08-24T11:36:02.175Z,1.60
2022-08-24T11:38:35.012Z,0.95
2022-08-24T11:41:16.155Z,4.32
2022-08-24T11:44:17.882Z,1.98
2022-08-24T11:46:53.553Z,1.15
2022-08-24T11:49:34.175Z,1.95
2022-08-24T11:52:13.500Z,4.82
2022-08-24T11:54:51.870Z,1.08
2022-08-24T11:57:25.536Z,0.75
2022-08-24T11:59:54.871Z,1.58
2022-08-24T12:02:33.961Z,1.00
2022-08-24T12:05:35.177Z,2.42
2022-08-24T12:08:27.459Z,3.15
2022-08-24T12:11:07.172Z,3.15
2022-08-24T12:13:38.211Z,4.85
2022-08-24T12:16:39.328Z,6.53
2022-08-24T12:19:14.628Z,7.80
2022-08-24T12:21:45.363Z,13.57
2022-08-24T12:24:21.290Z,2.20
2022-08-24T12:26:51.776Z,4.28
2022-08-24T12:29:28.575Z,4.90
2022-08-24T12:32:01.253Z,3.17
2022-08-24T12:34:40.393Z,3.97
2022-08-24T12:37:22.648Z,3.45
2022-08-24T12:39:55.564Z,1.92
2022-08-24T12:42:29.232Z,1.52
2022-08-24T12:45:10.687Z,3.25
2022-08-24T12:48:12.751Z,3.17
2022-08-24T12:50:58.119Z,0.50
2022-08-24T12:53:27.585Z,3.35
2022-08-24T12:55:56.902Z,3.10
2022-08-24T12:58:54.321Z,2.13
2022-08-24T13:01:27.896Z,5.80
2022-08-24T13:04:11.090Z,3.70
2022-08-24T13:06:37.967Z,1.73
2022-08-24T13:09:09.160Z,0.57
2022-08-24T13:11:37.997Z,1.50
2022-08-24T13:14:18.033Z,3.47
2022-08-24T13:16:56.487Z,4.65
2022-08-24T13:19:23.013Z,5.80
2022-08-24T13:21:58.630Z,4.93
2022-08-24T13:24:43.744Z,4.43
2022-08-24T13:27:13.052Z,4.30
2022-08-24T13:29:43.254Z,4.05
2022-08-24T13:32:22.658Z,1.85
2022-08-24T13:34:51.408Z,0.95
2022-08-24T13:37:24.374Z,2.75
2022-08-24T13:40:09.940Z,1.52
2022-08-24T13:43:02.606Z,0.98
2022-08-24T13:46:00.005Z,0.98
2022-08-24T13:48:32.872Z,5.38
2022-08-24T13:51:20.597Z,3.85
2022-08-24T13:54:05.842Z,1.85
2022-08-24T13:56:57.858Z,3.17
2022-08-24T13:59:37.186Z,2.47
2022-08-24T14:02:21.253Z,1.70
2022-08-24T14:05:30.868Z,1.90
2022-08-24T14:08:39.368Z,0.55
2022-08-24T14:11:21.202Z,0.73
2022-08-24T14:13:56.777Z,1.27
2022-08-24T14:17:03.558Z,2.60
2022-08-24T14:20:00.955Z,5.18
2022-08-24T14:23:03.138Z,3.13
2022-08-24T14:25:33.831Z,1.83
2022-08-24T14:28:00.398Z,4.05
2022-08-24T14:30:26.952Z,1.33
2022-08-24T14:32:59.359Z,1.08
2022-08-24T14:35:46.878Z,3.60
2022-08-24T14:38:25.303Z,0.98
2022-08-24T14:41:20.599Z,8.98
2022-08-24T14:44:13.587Z,2.15
2022-08-24T14:47:06.788Z,1.90
2022-08-24T14:49:58.489Z,2.80
2022-08-24T14:52:50.506Z,0.88
2022-08-24T14:55:18.383Z,2.53
2022-08-24T14:57:57.816Z,3.47
2022-08-24T15:00:44.721Z,1.08
2022-08-24T15:03:42.111Z,1.30
2022-08-24T15:06:30.210Z,2.00
2022-08-24T15:09:18.187Z,2.45
2022-08-24T15:11:47.390Z,1.85
2022-08-24T15:14:37.153Z,4.15
2022-08-24T15:17:13.952Z,4.22
2022-08-24T15:19:57.480Z,2.63
2022-08-24T15:22:40.999Z,1.73
2022-08-24T15:25:19.352Z,1.13
2022-08-24T15:27:58.268Z,1.92
2022-08-24T15:30:34.201Z,4.68
2022-08-24T15:33:19.400Z,1.27
2022-08-24T15:35:49.261Z,1.58
2022-08-24T15:38:23.292Z,0.95
2022-08-24T15:41:03.467Z,3.60
2022-08-24T15:43:30.099Z,1.35
2022-08-24T15:45:57.048Z,1.95
2022-08-24T15:48:25.951Z,0.70
2022-08-24T15:50:55.743Z,0.57
2022-08-24T15:53:28.496Z,1.58
2022-08-24T15:55:55.723Z,1.55
2022-08-24T15:58:28.155Z,0.95
2022-08-24T16:01:20.939Z,2.25
2022-08-24T16:03:49.955Z,2.20
2022-08-24T16:06:22.502Z,2.30
2022-08-24T16:09:03.354Z,2.55
2022-08-24T16:11:45.819Z,2.60
2022-08-24T16:14:24.768Z,2.17
2022-08-24T16:16:54.639Z,1.00
2022-08-24T16:19:26.870Z,1.45
2022-08-24T16:22:07.103Z,0.65
2022-08-24T16:24:40.183Z,2.03
2022-08-24T16:27:14.311Z,1.20
2022-08-24T16:29:41.950Z,3.27
2022-08-24T16:32:31.492Z,4.80
2022-08-24T16:35:07.951Z,1.40
2022-08-24T16:37:35.089Z,1.63
2022-08-24T16:40:01.767Z,2.67
2022-08-24T16:42:30.601Z,3.42
2022-08-24T16:44:58.950Z,4.10
2022-08-24T16:47:26.666Z,1.13
2022-08-24T16:49:53.944Z,0.93
2022-08-24T16:52:21.190Z,1.08
2022-08-24T16:54:48.356Z,2.45
2022-08-24T16:57:19.046Z,5.15
2022-08-24T16:59:48.405Z,3.40
2022-08-24T17:02:16.419Z,1.10
2022-08-24T17:04:43.268Z,1.48
2022-08-24T17:07:15.123Z,2.33
2022-08-24T17:09:44.605Z,2.45
2022-08-24T17:12:11.415Z,4.32
2022-08-24T17:14:39.513Z,0.80
2022-08-24T17:17:09.148Z,1.70
2022-08-24T17:19:36.366Z,3.22
2022-08-24T17:22:03.774Z,4.13
2022-08-24T17:24:30.367Z,3.22
2022-08-24T17:26:56.975Z,3.40
2022-08-24T17:29:24.864Z,2.20
2022-08-24T17:31:51.786Z,2.17
2022-08-24T17:34:24.547Z,7.72
2022-08-24T17:36:54.638Z,4.60
2022-08-24T17:39:24.029Z,3.10
2022-08-24T17:41:55.305Z,4.03
2022-08-24T17:44:25.969Z,2.67
2022-08-24T17:46:57.704Z,2.83
2022-08-24T17:49:26.065Z,9.88
2022-08-24T17:51:53.738Z,4.70
2022-08-24T17:54:20.304Z,1.77
2022-08-24T17:56:48.873Z,3.13
2022-08-24T17:59:20.639Z,2.40
2022-08-24T18:01:48.143Z,3.65
2022-08-24T18:04:15.143Z,5.68
2022-08-24T18:06:41.778Z,2.70
2022-08-24T18:09:15.538Z,7.07
2022-08-24T18:11:42.119Z,2.08
2022-08-24T18:14:08.774Z,5.88
2022-08-24T18:16:36.117Z,3.55
2022-08-24T18:19:02.975Z,2.58
2022-08-24T18:21:29.572Z,1.55
2022-08-24T18:23:56.206Z,2.80
2022-08-24T18:26:28.062Z,5.28
2022-08-24T18:28:57.487Z,2.88
2022-08-24T18:31:26.713Z,3.58
2022-08-24T18:33:54.483Z,4.68
2022-08-24T18:36:21.155Z,2.13
2022-08-24T18:38:47.774Z,1.75
2022-08-24T18:41:14.805Z,4.15
2022-08-24T18:43:41.394Z,4.40
2022-08-24T18:46:08.968Z,4.55
2022-08-24T18:48:36.323Z,7.72
2022-08-24T18:51:03.092Z,3.53
2022-08-24T18:53:30.010Z,2.63
2022-08-24T18:55:56.908Z,3.42
2022-08-24T18:58:23.503Z,5.03
2022-08-24T19:00:50.920Z,3.38
2022-08-24T19:03:21.694Z,5.57
2022-08-24T19:05:48.278Z,3.97
2022-08-24T19:08:15.127Z,7.47
2022-08-24T19:10:41.979Z,4.88
2022-08-24T19:13:18.298Z,10.93
2022-08-24T19:15:49.622Z,3.97
2022-08-24T19:18:18.432Z,3.67
2022-08-24T19:20:49.289Z,3.38
2022-08-24T19:23:24.837Z,7.80
2022-08-24T19:25:51.958Z,3.10
2022-08-24T19:28:19.112Z,2.97
2022-08-24T19:30:47.073Z,14.05
2022-08-24T19:33:26.124Z,4.93
2022-08-24T19:35:53.222Z,4.63
2022-08-24T19:38:25.153Z,6.28
2022-08-24T19:40:54.464Z,7.53
2022-08-24T19:43:22.023Z,7.35
2022-08-24T19:46:03.249Z,6.25
2022-08-24T19:48:32.159Z,4.30
2022-08-24T19:51:01.168Z,5.00
2022-08-24T19:53:30.168Z,8.10
2022-08-24T19:55:56.850Z,6.45
2022-08-24T19:58:29.491Z,7.82
2022-08-24T20:01:02.496Z,7.65
2022-08-24T20:03:29.132Z,11.32
2022-08-24T20:05:55.808Z,5.63
2022-08-24T20:08:22.478Z,3.67
2022-08-24T20:10:49.847Z,4.82
2022-08-24T20:13:16.640Z,3.50
2022-08-24T20:15:43.758Z,4.32
2022-08-24T20:18:10.813Z,6.03
2022-08-24T20:20:37.596Z,7.10
2022-08-24T20:23:06.380Z,5.30
2022-08-24T20:25:37.416Z,4.38
2022-08-24T20:28:28.111Z,5.20
2022-08-24T20:30:53.093Z,7.57
2022-08-24T20:33:23.913Z,2.00
2022-08-24T20:35:51.368Z,5.68
2022-08-24T20:38:20.041Z,7.13
2022-08-24T20:40:47.355Z,3.58
2022-08-24T20:43:14.509Z,4.82
2022-08-24T20:45:41.754Z,5.13
2022-08-24T20:48:12.194Z,4.10
2022-08-24T20:50:43.289Z,4.95
2022-08-24T20:53:11.513Z,4.03
2022-08-24T20:55:42.174Z,2.80
2022-08-24T20:58:09.797Z,1.95
2022-08-24T21:00:40.852Z,3.47
2022-08-24T21:03:07.679Z,4.03
2022-08-24T21:05:34.250Z,4.20
2022-08-24T21:08:00.927Z,5.90
2022-08-24T21:10:27.552Z,1.90
2022-08-24T21:12:55.250Z,2.03
2022-08-24T21:15:25.091Z,3.97
2022-08-24T21:17:51.832Z,3.60
2022-08-24T21:20:19.845Z,7.38
2022-08-24T21:22:46.445Z,6.18
2022-08-24T21:25:14.634Z,11.65
2022-08-24T21:27:44.184Z,9.57
2022-08-24T21:30:13.753Z,4.13
2022-08-24T21:32:59.143Z,3.10
2022-08-24T21:35:25.859Z,13.30
2022-08-24T21:37:52.852Z,3.40
2022-08-24T21:40:21.978Z,4.38
2022-08-24T21:42:49.289Z,2.10
2022-08-24T21:45:16.253Z,1.55
2022-08-24T21:47:43.076Z,5.28
2022-08-24T21:50:10.023Z,5.45
2022-08-24T21:52:37.322Z,5.45
2022-08-24T21:55:05.680Z,5.10
2022-08-24T21:57:32.283Z,3.45
2022-08-24T21:59:58.982Z,3.28
2022-08-24T22:02:25.959Z,6.63
2022-08-24T22:04:56.877Z,3.65
2022-08-24T22:07:26.678Z,4.90
2022-08-24T22:09:53.262Z,6.28
2022-08-24T22:12:20.044Z,2.72
2022-08-24T22:14:46.605Z,1.80
2022-08-24T22:17:13.205Z,5.88
2022-08-24T22:19:40.065Z,4.13
2022-08-24T22:22:06.771Z,4.45
2022-08-24T22:24:33.812Z,3.45
2022-08-24T22:27:00.624Z,5.75
2022-08-24T22:29:27.734Z,7.60
2022-08-24T22:31:54.306Z,6.18
2022-08-24T22:34:21.379Z,6.22
2022-08-24T22:36:48.724Z,7.60
2022-08-24T22:39:15.360Z,5.13
2022-08-24T22:41:42.526Z,6.15
2022-08-24T22:44:21.573Z,4.57
2022-08-24T22:46:56.973Z,4.85
2022-08-24T22:49:35.602Z,4.05
2022-08-24T22:52:04.960Z,5.25
2022-08-24T22:54:31.759Z,6.45
2022-08-24T22:56:58.387Z,6.18
2022-08-24T22:59:43.881Z,8.43
2022-08-24T23:02:15.797Z,4.97
2022-08-24T23:04:45.770Z,4.18
2022-08-24T23:07:13.127Z,4.07
2022-08-24T23:09:44.118Z,5.10
2022-08-24T23:12:14.101Z,5.95
2022-08-24T23:14:41.709Z,7.32
2022-08-24T23:17:08.275Z,5.80
2022-08-24T23:19:53.331Z,7.85
2022-08-24T23:22:21.160Z,4.43
2022-08-24T23:24:48.285Z,4.72
2022-08-24T23:27:16.512Z,4.85
2022-08-24T23:29:44.590Z,3.58
2022-08-24T23:32:11.653Z,5.05
2022-08-24T23:34:38.771Z,4.10
2022-08-24T23:37:05.781Z,5.70
2022-08-24T23:39:32.730Z,3.17
2022-08-24T23:41:59.442Z,8.90
2022-08-24T23:44:28.746Z,4.07
2022-08-24T23:46:58.657Z,2.92
2022-08-24T23:49:26.923Z,3.92
2022-08-24T23:51:54.308Z,5.93
2022-08-24T23:54:22.491Z,3.58
2022-08-24T23:56:50.481Z,7.40
2022-08-24T23:59:20.943Z,4.95
